Details for FedEx at ZGGG




Go Back


Latest METAR
Local Time

ZGGG 180400Z 09002MPS 030V140 9999 SCT023 23/16 Q1018 NOSIG

18/02/2018, 12:32:20

Description
Results
FedEx Logo
Number of Pilots based at ZGGG
0 Pilots Based here
Number of FedEx Flights Departed from ZGGG
0 Flights Departed
Number of FedEx Flights Arrived at ZGGG
0 Flights Arrived
Number of FedEx Schedules Departing from ZGGG
81 Schedules
Number of FedEx Schedules Arriving at ZGGG
79 Schedules
Number of FedEx Schedules Departing from ZGGG availible today
4 Schedules Today
Number of FedEx Schedules Arriving at ZGGG availible today
7 Schedules Today
Average Landing Rate at ZGGG
0 fpm
FedEx Average Landing Rate at ZGGG
0 fpm
Total Fuel Purchased at ZGGG by FedEx
0.00 kgs / 0.00 lbs

Pilots Based at ZGGG


Pilot ID
Pilot Name
Pilot Rank
No. of Flights
No. of Flying Hours
There are no pilots assigned to this hub!   Will you be the first?
Content